createdAt,value
2023-05-11T00:01:50.341Z,63.95
2023-05-11T00:05:51.987Z,62.92
2023-05-11T00:09:54.728Z,62.93
2023-05-11T00:13:55.559Z,63.29
2023-05-11T00:17:55.968Z,62.89
2023-05-11T00:21:56.144Z,62.96
2023-05-11T00:25:59.919Z,62.76
2023-05-11T00:30:00.368Z,62.42
2023-05-11T00:34:00.775Z,62.68
2023-05-11T00:38:01.129Z,64.47
2023-05-11T00:42:03.999Z,64.79
2023-05-11T00:46:05.548Z,63.73
2023-05-11T00:50:06.070Z,63.94
2023-05-11T00:54:13.213Z,63.10
2023-05-11T00:58:17.311Z,62.45
2023-05-11T01:02:17.727Z,62.09
2023-05-11T01:06:30.556Z,62.41
2023-05-11T01:10:45.129Z,63.04
2023-05-11T01:14:57.971Z,62.61
2023-05-11T01:19:08.309Z,62.49
2023-05-11T01:23:52.286Z,62.44
2023-05-11T01:28:18.396Z,63.66
2023-05-11T01:32:27.117Z,62.72
2023-05-11T01:36:35.444Z,62.89
2023-05-11T01:40:39.840Z,62.45
2023-05-11T01:44:45.660Z,62.45
2023-05-11T01:48:53.598Z,63.44
2023-05-11T01:52:55.902Z,63.18
2023-05-11T01:56:57.228Z,62.46
2023-05-11T02:01:00.398Z,63.19
2023-05-11T02:05:06.050Z,63.61
2023-05-11T02:09:07.304Z,63.33
2023-05-11T02:13:11.377Z,62.28
2023-05-11T02:17:13.636Z,62.39
2023-05-11T02:21:20.273Z,62.01
2023-05-11T02:25:21.706Z,62.58
2023-05-11T02:29:22.412Z,63.30
2023-05-11T02:33:28.698Z,62.65
2023-05-11T02:37:35.882Z,63.86
2023-05-11T02:41:42.326Z,62.85
2023-05-11T02:45:47.758Z,63.25
2023-05-11T02:49:54.545Z,63.06
2023-05-11T02:54:01.936Z,62.59
2023-05-11T02:58:06.807Z,62.57
2023-05-11T03:02:08.945Z,62.59
2023-05-11T03:06:09.733Z,62.92
2023-05-11T03:10:14.077Z,63.71
2023-05-11T03:14:17.422Z,63.93
2023-05-11T03:18:21.625Z,63.41
2023-05-11T03:22:23.815Z,62.99
2023-05-11T03:26:30.880Z,61.82
2023-05-11T03:30:36.081Z,62.13
2023-05-11T03:34:36.645Z,62.84
2023-05-11T03:38:39.597Z,63.39
2023-05-11T03:42:47.807Z,63.08
2023-05-11T03:46:50.776Z,63.36
2023-05-11T03:50:53.112Z,63.79
2023-05-11T03:54:53.673Z,63.21
2023-05-11T03:58:57.071Z,62.85
2023-05-11T04:02:59.099Z,62.33
2023-05-11T04:06:59.543Z,61.93
2023-05-11T04:11:00.294Z,62.21
2023-05-11T04:15:04.753Z,62.25
2023-05-11T04:19:06.690Z,62.88
2023-05-11T04:23:10.331Z,62.56
2023-05-11T04:27:10.732Z,62.96
2023-05-11T04:31:14.197Z,62.48
2023-05-11T04:35:14.977Z,62.96
2023-05-11T04:39:16.237Z,62.90
2023-05-11T04:43:16.963Z,63.51
2023-05-11T04:47:20.442Z,64.38
2023-05-11T04:51:21.188Z,64.22
2023-05-11T04:55:22.826Z,63.68
2023-05-11T04:59:24.686Z,63.85
2023-05-11T05:03:27.676Z,64.18
2023-05-11T05:07:28.713Z,65.73
2023-05-11T05:11:29.701Z,65.92
2023-05-11T05:15:30.630Z,65.76
2023-05-11T05:19:34.576Z,66.78
2023-05-11T05:23:35.228Z,66.41
2023-05-11T05:27:35.719Z,66.55
2023-05-11T05:31:40.666Z,65.39
2023-05-11T05:35:44.079Z,65.13
2023-05-11T05:39:47.688Z,64.76
2023-05-11T05:43:49.189Z,65.20
2023-05-11T05:47:51.931Z,64.89
2023-05-11T05:51:56.033Z,64.83
2023-05-11T05:55:56.658Z,63.87
2023-05-11T05:59:59.008Z,63.85
2023-05-11T06:03:59.475Z,63.67
2023-05-11T06:12:11.162Z,63.52
2023-05-11T06:16:16.687Z,63.58
2023-05-11T06:20:17.379Z,63.62
2023-05-11T06:24:20.817Z,65.38
2023-05-11T06:28:24.514Z,66.19
2023-05-11T06:32:27.673Z,65.70
2023-05-11T06:36:28.946Z,63.42
2023-05-11T06:40:31.872Z,63.79
2023-05-11T06:44:32.225Z,63.64
2023-05-11T06:48:32.937Z,63.52
2023-05-11T06:52:33.652Z,63.09
2023-05-11T06:56:39.638Z,62.99
2023-05-11T07:00:40.058Z,62.50
2023-05-11T07:04:40.373Z,62.45
2023-05-11T07:08:40.666Z,64.18
2023-05-11T07:12:43.838Z,63.60
2023-05-11T07:16:44.270Z,63.79
2023-05-11T07:20:47.099Z,63.22
2023-05-11T07:24:47.698Z,62.92
2023-05-11T07:28:50.752Z,62.97
2023-05-11T07:32:51.211Z,63.63
2023-05-11T07:36:51.451Z,63.68
2023-05-11T07:40:51.677Z,64.07
2023-05-11T07:44:54.824Z,63.30
2023-05-11T07:49:03.470Z,62.37
2023-05-11T07:53:14.583Z,62.60
2023-05-11T07:57:14.746Z,62.29
2023-05-11T08:01:17.759Z,63.12
2023-05-11T08:05:18.308Z,63.69
2023-05-11T08:09:18.822Z,63.73
2023-05-11T08:13:19.099Z,63.81
2023-05-11T08:17:21.931Z,64.49
2023-05-11T08:21:22.266Z,63.75
2023-05-11T08:25:22.685Z,64.01
2023-05-11T08:29:22.920Z,63.59
2023-05-11T08:37:30.878Z,63.34
2023-05-11T08:41:31.191Z,61.60
2023-05-11T08:45:34.820Z,62.17
2023-05-11T08:49:38.913Z,62.05
2023-05-11T08:53:39.221Z,62.34
2023-05-11T08:57:41.356Z,63.40
2023-05-11T09:01:44.748Z,62.17
2023-05-11T09:05:50.565Z,61.75
2023-05-11T09:09:51.525Z,63.14
2023-05-11T09:13:52.333Z,63.14
2023-05-11T09:17:52.693Z,62.85
2023-05-11T09:21:56.131Z,63.13
2023-05-11T09:25:56.823Z,63.70
2023-05-11T09:29:57.599Z,64.09
2023-05-11T09:34:14.182Z,64.33
2023-05-11T09:38:19.347Z,64.91
2023-05-11T09:42:21.936Z,64.09
2023-05-11T09:46:24.833Z,63.61
2023-05-11T09:50:26.477Z,61.96
2023-05-11T09:54:29.593Z,59.92
2023-05-11T09:58:29.790Z,61.72
2023-05-11T10:02:34.605Z,62.49
2023-05-11T10:06:51.323Z,61.35
2023-05-11T10:10:54.330Z,61.90
2023-05-11T10:14:58.027Z,61.49
2023-05-11T10:19:00.108Z,61.36
2023-05-11T10:23:00.360Z,62.00
2023-05-11T10:27:04.659Z,61.32
2023-05-11T10:31:07.853Z,61.48
2023-05-11T10:35:10.590Z,61.44
2023-05-11T10:39:10.889Z,62.07
2023-05-11T10:43:52.582Z,61.08
2023-05-11T10:48:27.912Z,60.82
2023-05-11T10:53:00.028Z,60.12
2023-05-11T10:57:36.550Z,60.54
2023-05-11T11:01:49.447Z,60.71
2023-05-11T11:05:49.883Z,60.81
2023-05-11T11:10:00.568Z,60.34
2023-05-11T11:14:04.735Z,61.60
2023-05-11T11:18:26.538Z,61.06
2023-05-11T11:22:52.454Z,59.17
2023-05-11T11:26:53.232Z,60.29
2023-05-11T11:31:29.676Z,59.98
2023-05-11T11:35:50.706Z,60.49
2023-05-11T11:40:13.249Z,62.09
2023-05-11T11:44:25.386Z,61.36
2023-05-11T11:48:33.756Z,61.44
2023-05-11T11:52:39.470Z,63.18
2023-05-11T11:56:47.112Z,63.53
2023-05-11T12:00:51.480Z,63.95
2023-05-11T12:05:00.100Z,61.92
2023-05-11T12:09:04.046Z,61.06
2023-05-11T12:13:05.150Z,60.34
2023-05-11T12:17:15.594Z,59.80
2023-05-11T12:21:23.709Z,60.38
2023-05-11T12:25:26.506Z,60.02
2023-05-11T12:29:27.064Z,60.21
2023-05-11T12:33:27.514Z,60.43
2023-05-11T12:37:28.196Z,59.85
2023-05-11T12:41:30.994Z,61.12
2023-05-11T12:45:32.404Z,61.23
2023-05-11T12:49:34.209Z,61.36
2023-05-11T12:53:39.141Z,62.36
2023-05-11T12:57:43.847Z,62.22
2023-05-11T13:01:44.490Z,62.26
2023-05-11T13:05:44.751Z,60.21
2023-05-11T13:09:45.539Z,60.39
2023-05-11T13:13:48.432Z,60.29
2023-05-11T13:17:59.153Z,62.34
2023-05-11T13:22:01.680Z,63.88
2023-05-11T13:26:02.198Z,64.60
2023-05-11T13:30:08.633Z,64.41
2023-05-11T13:34:09.501Z,62.26
2023-05-11T13:38:11.842Z,62.30
2023-05-11T13:42:12.142Z,62.34
2023-05-11T13:46:15.653Z,62.10
2023-05-11T13:50:16.471Z,61.63
2023-05-11T13:54:16.848Z,62.84
2023-05-11T13:58:18.031Z,63.05
2023-05-11T14:02:20.888Z,62.59
2023-05-11T14:06:21.212Z,62.33
2023-05-11T14:10:22.681Z,62.10
2023-05-11T14:14:23.078Z,62.71
2023-05-11T14:18:31.197Z,63.04
2023-05-11T14:22:31.617Z,62.27
2023-05-11T14:26:31.812Z,61.65
2023-05-11T14:30:32.051Z,62.16
2023-05-11T14:34:35.030Z,61.37
2023-05-11T14:38:35.267Z,62.60
2023-05-11T14:42:35.574Z,61.93
2023-05-11T14:46:36.335Z,62.48
2023-05-11T14:50:39.135Z,61.25
2023-05-11T14:54:39.430Z,58.79
2023-05-11T14:58:41.871Z,60.25
2023-05-11T15:02:42.798Z,60.76
2023-05-11T15:06:46.844Z,60.56
2023-05-11T15:10:47.137Z,59.83
2023-05-11T15:14:47.255Z,59.71
2023-05-11T15:18:49.982Z,60.12
2023-05-11T15:22:53.048Z,59.53
2023-05-11T15:26:53.298Z,58.88
2023-05-11T15:30:53.556Z,58.85
2023-05-11T15:34:59.689Z,58.29
2023-05-11T15:39:03.081Z,59.35
2023-05-11T15:43:03.450Z,59.77
2023-05-11T15:47:04.347Z,59.64
2023-05-11T15:51:05.084Z,59.48
2023-05-11T15:55:08.974Z,59.61
2023-05-11T15:59:09.412Z,59.35
2023-05-11T16:03:09.945Z,59.88
2023-05-11T16:07:10.385Z,59.15
2023-05-11T16:11:13.272Z,59.98
2023-05-11T16:15:14.323Z,60.60
2023-05-11T16:19:14.935Z,60.11
2023-05-11T16:23:15.652Z,61.24
2023-05-11T16:27:18.609Z,62.02
2023-05-11T16:31:18.910Z,62.13
2023-05-11T16:35:19.300Z,61.91
2023-05-11T16:39:19.578Z,63.17
2023-05-11T16:43:22.345Z,61.99
2023-05-11T16:47:22.774Z,63.33
2023-05-11T16:51:23.062Z,63.34
2023-05-11T16:55:23.571Z,62.70
2023-05-11T16:59:26.841Z,62.89
2023-05-11T17:03:27.174Z,63.47
2023-05-11T17:07:29.084Z,64.21
2023-05-11T17:11:29.290Z,63.72
2023-05-11T17:15:32.478Z,64.63
2023-05-11T17:19:32.799Z,65.37
2023-05-11T17:23:34.131Z,64.29
2023-05-11T17:27:35.187Z,64.36
2023-05-11T17:31:38.238Z,64.61
2023-05-11T17:35:38.804Z,64.94
2023-05-11T17:39:39.127Z,64.36
2023-05-11T17:43:39.371Z,63.65
2023-05-11T17:47:42.723Z,64.48
2023-05-11T17:51:42.947Z,63.76
2023-05-11T17:55:44.428Z,64.04
2023-05-11T17:59:44.681Z,63.97
2023-05-11T18:03:48.808Z,63.64
2023-05-11T18:07:49.528Z,63.93
2023-05-11T18:11:50.898Z,63.82
2023-05-11T18:15:51.698Z,63.73
2023-05-11T18:19:54.693Z,63.15
2023-05-11T18:23:55.007Z,63.97
2023-05-11T18:27:55.407Z,64.29
2023-05-11T18:31:56.052Z,64.07
2023-05-11T18:35:58.954Z,64.04
2023-05-11T18:39:59.170Z,64.37
2023-05-11T18:44:00.458Z,64.25
2023-05-11T18:48:00.916Z,64.99
2023-05-11T18:52:04.178Z,64.95
2023-05-11T18:56:04.421Z,64.75
2023-05-11T19:00:05.662Z,64.78
2023-05-11T19:04:07.232Z,64.65
2023-05-11T19:08:10.657Z,65.35
2023-05-11T19:12:11.891Z,65.36
2023-05-11T19:16:12.467Z,65.17
2023-05-11T19:20:13.723Z,65.59
2023-05-11T19:24:16.660Z,65.57
2023-05-11T19:28:16.912Z,66.06
2023-05-11T19:32:19.198Z,65.51
2023-05-11T19:36:19.768Z,65.65
2023-05-11T19:44:32.972Z,65.54
2023-05-11T19:48:33.544Z,65.24
2023-05-11T19:52:34.045Z,64.94
2023-05-11T19:56:37.355Z,65.41
2023-05-11T20:00:37.777Z,65.40
2023-05-11T20:04:38.143Z,65.36
2023-05-11T20:08:38.338Z,65.56
2023-05-11T20:12:42.243Z,65.80
2023-05-11T20:16:42.644Z,64.88
2023-05-11T20:20:43.043Z,65.11
2023-05-11T20:24:45.647Z,64.62
2023-05-11T20:28:48.877Z,64.38
2023-05-11T20:36:53.956Z,65.38
2023-05-11T20:41:00.126Z,64.82
2023-05-11T20:45:07.533Z,64.66
2023-05-11T20:49:08.342Z,65.40
2023-05-11T20:53:08.831Z,64.95
2023-05-11T20:57:10.099Z,64.20
2023-05-11T21:01:13.606Z,63.81
2023-05-11T21:05:14.013Z,63.81
2023-05-11T21:09:14.819Z,63.99
2023-05-11T21:13:17.874Z,64.02
2023-05-11T21:17:22.454Z,64.43
2023-05-11T21:21:30.087Z,65.07
2023-05-11T21:25:31.677Z,64.53
2023-05-11T21:29:37.833Z,64.42
2023-05-11T21:33:42.001Z,64.58
2023-05-11T21:37:45.764Z,65.24
2023-05-11T21:41:48.286Z,64.95
2023-05-11T21:45:50.813Z,65.07
2023-05-11T21:49:54.735Z,65.79
2023-05-11T21:53:56.815Z,65.44
2023-05-11T21:57:58.829Z,65.71
2023-05-11T22:02:00.455Z,65.35
2023-05-11T22:06:05.340Z,65.64
2023-05-11T22:10:05.882Z,66.87
2023-05-11T22:14:06.606Z,66.79
2023-05-11T22:18:07.094Z,66.72
2023-05-11T22:22:10.268Z,67.02
2023-05-11T22:26:10.625Z,66.80
2023-05-11T22:30:12.993Z,66.54
2023-05-11T22:34:13.287Z,65.40
2023-05-11T22:38:16.445Z,65.43
2023-05-11T22:42:16.642Z,65.60
2023-05-11T22:46:17.488Z,64.62
2023-05-11T22:50:18.232Z,65.59
2023-05-11T22:54:21.429Z,66.08
2023-05-11T22:58:22.819Z,66.46
2023-05-11T23:02:23.205Z,66.60
2023-05-11T23:06:23.759Z,66.20
2023-05-11T23:10:27.508Z,66.01
2023-05-11T23:14:27.792Z,66.46
2023-05-11T23:18:28.347Z,66.85
2023-05-11T23:22:29.065Z,67.38
2023-05-11T23:26:31.887Z,66.77
2023-05-11T23:30:32.290Z,65.40
2023-05-11T23:34:33.411Z,66.11
2023-05-11T23:38:38.395Z,66.31
2023-05-11T23:42:41.525Z,66.01
2023-05-11T23:46:41.885Z,66.32
2023-05-11T23:50:42.086Z,66.30
2023-05-11T23:54:42.788Z,66.75
2023-05-11T23:58:46.279Z,66.35
